FIMP

Sir Seewoosagur Ramgoolam International Airport

Port Louis, Mauritius
METAR FIMP 201000Z 05016KT 9999 FEW018 31/23 Q1014
Observed Flight Rules
Jan-20 @ 10:00 UTC (an hour ago) Visual Flight Rules
Wind Visibility Clouds
50° at 16 knots 10,000+ meters
  • Few at 1,800' AGL
Temperatures Readings
Current 31°C / 88°F
Dewpoint 23°C / 73°F
Humidity 62%
Altimeter 29.94" Hg
Pressure 1013.92 hPa
Elevation 57
METAR FIMP 201000Z 05016KT 9999 FEW018 31/23 Q1014
Observed Flight Rules
Jan-20 @ 10:00 UTC
(an hour ago)
VFR
Wind Visibility
50° at 16 knots 10,000+ meters
Clouds
  • Few at 1,800' AGL
Temperature Dewpoint
31°C / 88°F 23°C / 73°F
Humidity Altimeter Pressure
62% 29.94" Hg 1013.92 hPa